sensor_id;sensor_type;location;lat;lon;timestamp;pressure;altitude;pressure_sealevel;temperature;humidity
6464;BME280;3265;42.694;23.282;2022-12-07T00:00:53;94625.28;;;6.60;100.00
6464;BME280;3265;42.694;23.282;2022-12-07T00:03:20;94618.72;;;6.58;100.00
6464;BME280;3265;42.694;23.282;2022-12-07T00:05:47;94623.09;;;6.57;100.00
6464;BME280;3265;42.694;23.282;2022-12-07T00:08:15;94618.88;;;6.50;100.00
6464;BME280;3265;42.694;23.282;2022-12-07T00:10:42;94624.28;;;6.55;100.00
6464;BME280;3265;42.694;23.282;2022-12-07T00:13:08;94626.84;;;6.55;100.00
6464;BME280;3265;42.694;23.282;2022-12-07T00:15:35;94615.72;;;6.54;100.00
6464;BME280;3265;42.694;23.282;2022-12-07T00:18:02;94617.13;;;6.57;100.00
6464;BME280;3265;42.694;23.282;2022-12-07T00:20:29;94621.88;;;6.53;100.00
6464;BME280;3265;42.694;23.282;2022-12-07T00:22:56;94612.28;;;6.41;100.00
6464;BME280;3265;42.694;23.282;2022-12-07T00:25:25;94616.69;;;6.47;100.00
6464;BME280;3265;42.694;23.282;2022-12-07T00:27:52;94621.84;;;6.47;100.00
6464;BME280;3265;42.694;23.282;2022-12-07T00:30:21;94625.03;;;6.49;100.00
6464;BME280;3265;42.694;23.282;2022-12-07T00:32:47;94622.84;;;6.52;100.00
6464;BME280;3265;42.694;23.282;2022-12-07T00:35:14;94623.50;;;6.61;100.00
6464;BME280;3265;42.694;23.282;2022-12-07T00:37:41;94623.88;;;6.64;100.00
6464;BME280;3265;42.694;23.282;2022-12-07T00:40:09;94620.13;;;6.60;100.00
6464;BME280;3265;42.694;23.282;2022-12-07T00:42:37;94625.03;;;6.55;100.00
6464;BME280;3265;42.694;23.282;2022-12-07T00:45:04;94624.28;;;6.61;100.00
6464;BME280;3265;42.694;23.282;2022-12-07T00:47:32;94620.50;;;6.57;100.00
6464;BME280;3265;42.694;23.282;2022-12-07T00:49:58;94611.38;;;6.55;100.00
6464;BME280;3265;42.694;23.282;2022-12-07T00:52:25;94615.72;;;6.54;100.00
6464;BME280;3265;42.694;23.282;2022-12-07T00:54:52;94619.50;;;6.58;100.00
6464;BME280;3265;42.694;23.282;2022-12-07T00:57:19;94625.28;;;6.60;100.00
6464;BME280;3265;42.694;23.282;2022-12-07T00:59:47;94611.78;;;6.65;100.00
6464;BME280;3265;42.694;23.282;2022-12-07T01:02:14;94613.25;;;6.33;100.00
6464;BME280;3265;42.694;23.282;2022-12-07T01:04:41;94608.84;;;6.20;100.00
6464;BME280;3265;42.694;23.282;2022-12-07T01:07:08;94612.63;;;6.24;100.00
6464;BME280;3265;42.694;23.282;2022-12-07T01:09:35;94609.25;;;6.24;100.00
6464;BME280;3265;42.694;23.282;2022-12-07T01:12:02;94607.28;;;6.26;100.00
6464;BME280;3265;42.694;23.282;2022-12-07T01:14:29;94616.06;;;6.32;100.00
6464;BME280;3265;42.694;23.282;2022-12-07T01:16:57;94605.47;;;6.26;100.00
6464;BME280;3265;42.694;23.282;2022-12-07T01:19:24;94608.28;;;6.25;100.00
6464;BME280;3265;42.694;23.282;2022-12-07T01:21:51;94596.09;;;6.12;100.00
6464;BME280;3265;42.694;23.282;2022-12-07T01:24:18;94595.88;;;6.07;100.00
6464;BME280;3265;42.694;23.282;2022-12-07T01:26:44;94600.06;;;6.08;100.00
6464;BME280;3265;42.694;23.282;2022-12-07T01:29:11;94585.41;;;6.09;100.00
6464;BME280;3265;42.694;23.282;2022-12-07T01:31:38;94597.53;;;6.21;100.00
6464;BME280;3265;42.694;23.282;2022-12-07T01:34:06;94592.97;;;6.23;100.00
6464;BME280;3265;42.694;23.282;2022-12-07T01:36:35;94591.19;;;6.24;100.00
6464;BME280;3265;42.694;23.282;2022-12-07T01:39:05;94595.38;;;6.25;100.00
6464;BME280;3265;42.694;23.282;2022-12-07T01:41:34;94596.38;;;6.31;100.00
6464;BME280;3265;42.694;23.282;2022-12-07T01:44:11;94595.41;;;6.38;100.00
6464;BME280;3265;42.694;23.282;2022-12-07T01:46:39;94589.47;;;6.38;100.00
6464;BME280;3265;42.694;23.282;2022-12-07T01:49:10;94595.66;;;6.43;100.00
6464;BME280;3265;42.694;23.282;2022-12-07T01:51:40;94591.88;;;6.46;100.00
6464;BME280;3265;42.694;23.282;2022-12-07T01:54:09;94586.06;;;6.31;100.00
6464;BME280;3265;42.694;23.282;2022-12-07T01:56:39;94583.44;;;6.24;100.00
6464;BME280;3265;42.694;23.282;2022-12-07T01:59:08;94583.25;;;6.19;100.00
6464;BME280;3265;42.694;23.282;2022-12-07T02:01:34;94574.31;;;6.21;100.00
6464;BME280;3265;42.694;23.282;2022-12-07T02:04:02;94570.38;;;6.25;100.00
6464;BME280;3265;42.694;23.282;2022-12-07T02:06:31;94575.16;;;6.28;100.00
6464;BME280;3265;42.694;23.282;2022-12-07T02:08:58;94582.09;;;6.28;100.00
6464;BME280;3265;42.694;23.282;2022-12-07T02:11:25;94576.72;;;6.29;100.00
6464;BME280;3265;42.694;23.282;2022-12-07T02:13:51;94577.31;;;6.25;100.00
6464;BME280;3265;42.694;23.282;2022-12-07T02:16:26;94572.31;;;6.17;100.00
6464;BME280;3265;42.694;23.282;2022-12-07T02:19:14;94573.31;;;6.16;100.00
6464;BME280;3265;42.694;23.282;2022-12-07T02:21:54;94563.78;;;6.16;100.00
6464;BME280;3265;42.694;23.282;2022-12-07T02:24:45;94572.16;;;6.25;100.00
6464;BME280;3265;42.694;23.282;2022-12-07T02:27:32;94563.00;;;6.22;100.00
6464;BME280;3265;42.694;23.282;2022-12-07T02:30:04;94570.16;;;6.27;100.00
6464;BME280;3265;42.694;23.282;2022-12-07T02:32:40;94567.97;;;6.24;100.00
6464;BME280;3265;42.694;23.282;2022-12-07T02:35:12;94561.06;;;6.31;100.00
6464;BME280;3265;42.694;23.282;2022-12-07T02:37:46;94563.03;;;6.36;100.00
6464;BME280;3265;42.694;23.282;2022-12-07T02:40:19;94563.84;;;6.36;100.00
6464;BME280;3265;42.694;23.282;2022-12-07T02:42:53;94575.38;;;6.40;100.00
6464;BME280;3265;42.694;23.282;2022-12-07T02:45:25;94566.22;;;6.31;100.00
6464;BME280;3265;42.694;23.282;2022-12-07T02:47:55;94561.47;;;6.35;100.00
6464;BME280;3265;42.694;23.282;2022-12-07T02:50:24;94561.25;;;6.36;100.00
6464;BME280;3265;42.694;23.282;2022-12-07T02:52:51;94566.22;;;6.31;100.00
6464;BME280;3265;42.694;23.282;2022-12-07T02:55:20;94559.63;;;6.22;100.00
6464;BME280;3265;42.694;23.282;2022-12-07T02:57:57;94548.09;;;6.18;100.00
6464;BME280;3265;42.694;23.282;2022-12-07T03:00:37;94547.88;;;6.13;100.00
6464;BME280;3265;42.694;23.282;2022-12-07T03:03:10;94543.66;;;5.99;100.00
6464;BME280;3265;42.694;23.282;2022-12-07T03:05:59;94535.97;;;6.05;100.00
6464;BME280;3265;42.694;23.282;2022-12-07T03:08:36;94541.53;;;6.15;100.00
6464;BME280;3265;42.694;23.282;2022-12-07T03:11:06;94533.38;;;6.12;100.00
6464;BME280;3265;42.694;23.282;2022-12-07T03:13:39;94539.56;;;6.11;100.00
6464;BME280;3265;42.694;23.282;2022-12-07T03:16:14;94543.28;;;6.02;100.00
6464;BME280;3265;42.694;23.282;2022-12-07T03:18:46;94539.94;;;6.08;100.00
6464;BME280;3265;42.694;23.282;2022-12-07T03:21:17;94536.56;;;6.07;100.00
6464;BME280;3265;42.694;23.282;2022-12-07T03:23:48;94537.75;;;6.05;100.00
6464;BME280;3265;42.694;23.282;2022-12-07T03:26:17;94543.88;;;6.04;100.00
6464;BME280;3265;42.694;23.282;2022-12-07T03:28:52;94549.28;;;6.09;100.00
6464;BME280;3265;42.694;23.282;2022-12-07T03:31:23;94544.13;;;6.15;100.00
6464;BME280;3265;42.694;23.282;2022-12-07T03:33:58;94550.84;;;6.10;100.00
6464;BME280;3265;42.694;23.282;2022-12-07T03:36:29;94546.25;;;5.99;100.00
6464;BME280;3265;42.694;23.282;2022-12-07T03:39:03;94543.47;;;6.00;100.00
6464;BME280;3265;42.694;23.282;2022-12-07T03:41:34;94536.91;;;5.98;100.00
6464;BME280;3265;42.694;23.282;2022-12-07T03:44:03;94545.47;;;6.05;100.00
6464;BME280;3265;42.694;23.282;2022-12-07T03:46:37;94550.22;;;6.01;100.00
6464;BME280;3265;42.694;23.282;2022-12-07T03:49:11;94546.06;;;6.07;100.00
6464;BME280;3265;42.694;23.282;2022-12-07T03:51:46;94547.47;;;6.03;100.00
6464;BME280;3265;42.694;23.282;2022-12-07T03:54:19;94541.47;;;5.96;100.00
6464;BME280;3265;42.694;23.282;2022-12-07T03:56:51;94536.13;;;5.97;100.00
6464;BME280;3265;42.694;23.282;2022-12-07T03:59:19;94536.34;;;6.02;100.00
6464;BME280;3265;42.694;23.282;2022-12-07T04:01:54;94542.31;;;6.03;100.00
6464;BME280;3265;42.694;23.282;2022-12-07T04:04:21;94536.34;;;6.02;100.00
6464;BME280;3265;42.694;23.282;2022-12-07T04:06:48;94533.56;;;5.97;100.00
6464;BME280;3265;42.694;23.282;2022-12-07T04:09:15;94529.97;;;5.98;100.00
6464;BME280;3265;42.694;23.282;2022-12-07T04:11:42;94536.16;;;6.04;100.00
6464;BME280;3265;42.694;23.282;2022-12-07T04:14:09;94526.41;;;5.99;100.00
6464;BME280;3265;42.694;23.282;2022-12-07T04:16:44;94525.19;;;5.95;100.00
6464;BME280;3265;42.694;23.282;2022-12-07T04:19:13;94534.94;;;5.93;100.00
6464;BME280;3265;42.694;23.282;2022-12-07T04:21:40;94533.53;;;5.91;100.00
6464;BME280;3265;42.694;23.282;2022-12-07T04:24:07;94537.28;;;5.88;100.00
6464;BME280;3265;42.694;23.282;2022-12-07T04:26:34;94532.66;;;5.84;100.00
6464;BME280;3265;42.694;23.282;2022-12-07T04:29:01;94539.66;;;5.90;100.00
6464;BME280;3265;42.694;23.282;2022-12-07T04:31:28;94546.22;;;5.86;100.00
6464;BME280;3265;42.694;23.282;2022-12-07T04:33:55;94539.78;;;5.82;100.00
6464;BME280;3265;42.694;23.282;2022-12-07T04:36:23;94537.94;;;5.62;100.00
6464;BME280;3265;42.694;23.282;2022-12-07T04:38:52;94529.88;;;5.44;100.00
6464;BME280;3265;42.694;23.282;2022-12-07T04:41:19;94534.13;;;5.58;100.00
6464;BME280;3265;42.694;23.282;2022-12-07T04:43:52;94534.13;;;5.58;100.00
6464;BME280;3265;42.694;23.282;2022-12-07T04:46:19;94545.88;;;5.67;100.00
6464;BME280;3265;42.694;23.282;2022-12-07T04:48:46;94546.06;;;5.66;100.00
6464;BME280;3265;42.694;23.282;2022-12-07T04:51:13;94540.25;;;5.57;100.00
6464;BME280;3265;42.694;23.282;2022-12-07T04:53:42;94541.06;;;5.58;100.00
6464;BME280;3265;42.694;23.282;2022-12-07T04:56:09;94544.44;;;5.58;100.00
6464;BME280;3265;42.694;23.282;2022-12-07T04:58:35;94548.00;;;5.57;100.00
6464;BME280;3265;42.694;23.282;2022-12-07T05:01:02;94547.44;;;5.62;100.00
6464;BME280;3265;42.694;23.282;2022-12-07T05:03:29;94545.41;;;5.57;100.00
6464;BME280;3265;42.694;23.282;2022-12-07T05:05:56;94541.25;;;5.56;100.00
6464;BME280;3265;42.694;23.282;2022-12-07T05:08:23;94553.56;;;5.61;100.00
6464;BME280;3265;42.694;23.282;2022-12-07T05:10:51;94547.88;;;5.65;100.00
6464;BME280;3265;42.694;23.282;2022-12-07T05:13:18;94538.94;;;5.68;100.00
6464;BME280;3265;42.694;23.282;2022-12-07T05:15:46;94537.75;;;5.70;100.00
6464;BME280;3265;42.694;23.282;2022-12-07T05:18:13;94542.69;;;5.65;100.00
6464;BME280;3265;42.694;23.282;2022-12-07T05:20:40;94517.81;;;5.51;100.00
6464;BME280;3265;42.694;23.282;2022-12-07T05:23:07;94539.88;;;5.54;100.00
6464;BME280;3265;42.694;23.282;2022-12-07T05:25:35;94546.81;;;5.60;100.00
6464;BME280;3265;42.694;23.282;2022-12-07T05:28:04;94544.22;;;5.53;100.00
6464;BME280;3265;42.694;23.282;2022-12-07T05:30:31;94542.00;;;5.50;100.00
6464;BME280;3265;42.694;23.282;2022-12-07T05:32:58;94533.06;;;5.46;100.00
6464;BME280;3265;42.694;23.282;2022-12-07T05:35:25;94536.66;;;5.52;100.00
6464;BME280;3265;42.694;23.282;2022-12-07T05:37:52;94545.41;;;5.57;100.00
6464;BME280;3265;42.694;23.282;2022-12-07T05:40:20;94544.44;;;5.58;100.00
6464;BME280;3265;42.694;23.282;2022-12-07T05:42:47;94540.69;;;5.61;100.00
6464;BME280;3265;42.694;23.282;2022-12-07T05:45:15;94529.59;;;5.67;100.00
6464;BME280;3265;42.694;23.282;2022-12-07T05:47:42;94519.50;;;5.65;100.00
6464;BME280;3265;42.694;23.282;2022-12-07T05:50:09;94527.25;;;5.65;100.00
6464;BME280;3265;42.694;23.282;2022-12-07T05:52:36;94528.00;;;5.66;100.00
6464;BME280;3265;42.694;23.282;2022-12-07T05:55:03;94524.84;;;5.64;100.00
6464;BME280;3265;42.694;23.282;2022-12-07T05:57:30;94505.94;;;5.50;100.00
6464;BME280;3265;42.694;23.282;2022-12-07T05:59:56;94515.88;;;5.60;100.00
6464;BME280;3265;42.694;23.282;2022-12-07T06:02:24;94526.22;;;5.66;100.00
6464;BME280;3265;42.694;23.282;2022-12-07T06:04:50;94519.50;;;5.72;100.00
6464;BME280;3265;42.694;23.282;2022-12-07T06:07:17;94530.72;;;5.86;100.00
6464;BME280;3265;42.694;23.282;2022-12-07T06:09:44;94527.88;;;5.81;100.00
6464;BME280;3265;42.694;23.282;2022-12-07T06:12:12;94536.41;;;5.81;100.00
6464;BME280;3265;42.694;23.282;2022-12-07T06:14:57;94531.44;;;5.73;100.00
6464;BME280;3265;42.694;23.282;2022-12-07T06:17:25;94536.97;;;5.70;100.00
6464;BME280;3265;42.694;23.282;2022-12-07T06:19:52;94535.59;;;5.74;100.00
6464;BME280;3265;42.694;23.282;2022-12-07T06:22:19;94522.28;;;5.70;100.00
6464;BME280;3265;42.694;23.282;2022-12-07T06:24:46;94538.81;;;5.83;100.00
6464;BME280;3265;42.694;23.282;2022-12-07T06:27:13;94542.63;;;5.87;100.00
6464;BME280;3265;42.694;23.282;2022-12-07T06:29:40;94541.78;;;5.80;100.00
6464;BME280;3265;42.694;23.282;2022-12-07T06:32:07;94540.41;;;5.84;100.00
6464;BME280;3265;42.694;23.282;2022-12-07T06:34:35;94539.69;;;5.96;100.00
6464;BME280;3265;42.694;23.282;2022-12-07T06:37:02;94552.22;;;5.99;100.00
6464;BME280;3265;42.694;23.282;2022-12-07T06:39:30;94554.56;;;5.94;100.00
6464;BME280;3265;42.694;23.282;2022-12-07T06:41:57;94549.56;;;5.86;100.00
6464;BME280;3265;42.694;23.282;2022-12-07T06:44:24;94553.28;;;5.84;100.00
6464;BME280;3265;42.694;23.282;2022-12-07T06:46:52;94555.72;;;5.92;100.00
6464;BME280;3265;42.694;23.282;2022-12-07T06:49:19;94542.97;;;5.84;100.00
6464;BME280;3265;42.694;23.282;2022-12-07T06:51:47;94555.97;;;5.97;100.00
6464;BME280;3265;42.694;23.282;2022-12-07T06:54:15;94546.81;;;5.88;100.00
6464;BME280;3265;42.694;23.282;2022-12-07T06:56:42;94559.16;;;5.99;100.00
6464;BME280;3265;42.694;23.282;2022-12-07T06:59:09;94561.75;;;6.05;100.00
6464;BME280;3265;42.694;23.282;2022-12-07T07:01:36;94558.81;;;6.08;100.00
6464;BME280;3265;42.694;23.282;2022-12-07T07:04:03;94563.38;;;6.13;100.00
6464;BME280;3265;42.694;23.282;2022-12-07T07:06:30;94545.28;;;6.06;100.00
6464;BME280;3265;42.694;23.282;2022-12-07T07:08:58;94561.00;;;6.18;100.00
6464;BME280;3265;42.694;23.282;2022-12-07T07:11:25;94557.41;;;6.12;100.00
6464;BME280;3265;42.694;23.282;2022-12-07T07:13:52;94562.09;;;5.96;100.00
6464;BME280;3265;42.694;23.282;2022-12-07T07:16:22;94562.50;;;5.93;100.00
6464;BME280;3265;42.694;23.282;2022-12-07T07:18:49;94546.56;;;5.83;100.00
6464;BME280;3265;42.694;23.282;2022-12-07T07:21:16;94558.59;;;5.76;100.00
6464;BME280;3265;42.694;23.282;2022-12-07T07:23:43;94555.06;;;5.83;100.00
6464;BME280;3265;42.694;23.282;2022-12-07T07:26:11;94564.09;;;5.94;100.00
6464;BME280;3265;42.694;23.282;2022-12-07T07:28:38;94561.31;;;5.89;100.00
6464;BME280;3265;42.694;23.282;2022-12-07T07:31:05;94562.19;;;5.81;100.00
6464;BME280;3265;42.694;23.282;2022-12-07T07:33:32;94557.91;;;5.60;100.00
6464;BME280;3265;42.694;23.282;2022-12-07T07:35:59;94559.91;;;5.58;100.00
6464;BME280;3265;42.694;23.282;2022-12-07T07:38:25;94561.97;;;5.76;100.00
6464;BME280;3265;42.694;23.282;2022-12-07T07:40:52;94557.44;;;5.78;100.00
6464;BME280;3265;42.694;23.282;2022-12-07T07:43:20;94549.00;;;5.63;100.00
6464;BME280;3265;42.694;23.282;2022-12-07T07:45:47;94560.69;;;5.59;100.00
6464;BME280;3265;42.694;23.282;2022-12-07T07:48:14;94533.53;;;5.56;100.00
6464;BME280;3265;42.694;23.282;2022-12-07T07:50:41;94567.19;;;5.83;100.00
6464;BME280;3265;42.694;23.282;2022-12-07T07:53:08;94558.72;;;5.89;100.00
6464;BME280;3265;42.694;23.282;2022-12-07T07:55:35;94558.16;;;6.00;100.00
6464;BME280;3265;42.694;23.282;2022-12-07T07:58:02;94555.22;;;6.09;100.00
6464;BME280;3265;42.694;23.282;2022-12-07T08:00:30;94553.09;;;6.19;100.00
6464;BME280;3265;42.694;23.282;2022-12-07T08:02:57;94562.38;;;6.20;100.00
6464;BME280;3265;42.694;23.282;2022-12-07T08:05:24;94564.59;;;6.23;100.00
6464;BME280;3265;42.694;23.282;2022-12-07T08:07:51;94567.41;;;6.35;100.00
6464;BME280;3265;42.694;23.282;2022-12-07T08:10:18;94566.44;;;6.36;100.00
6464;BME280;3265;42.694;23.282;2022-12-07T08:12:45;94550.91;;;6.29;100.00
6464;BME280;3265;42.694;23.282;2022-12-07T08:15:30;94565.84;;;6.34;100.00
6464;BME280;3265;42.694;23.282;2022-12-07T08:17:57;94559.38;;;6.10;100.00
6464;BME280;3265;42.694;23.282;2022-12-07T08:20:24;94564.59;;;5.83;100.00
6464;BME280;3265;42.694;23.282;2022-12-07T08:22:51;94553.16;;;5.57;100.00
6464;BME280;3265;42.694;23.282;2022-12-07T08:25:18;94554.78;;;5.65;100.00
6464;BME280;3265;42.694;23.282;2022-12-07T08:27:46;94550.88;;;5.76;100.00
6464;BME280;3265;42.694;23.282;2022-12-07T08:30:13;94551.84;;;5.74;100.00
6464;BME280;3265;42.694;23.282;2022-12-07T08:32:41;94550.59;;;5.64;100.00
6464;BME280;3265;42.694;23.282;2022-12-07T08:35:08;94566.53;;;5.74;100.00
6464;BME280;3265;42.694;23.282;2022-12-07T08:37:36;94559.88;;;5.86;100.00
6464;BME280;3265;42.694;23.282;2022-12-07T08:40:03;94560.31;;;5.96;100.00
6464;BME280;3265;42.694;23.282;2022-12-07T08:42:31;94555.41;;;6.08;100.00
6464;BME280;3265;42.694;23.282;2022-12-07T08:45:05;94537.69;;;5.92;100.00
6464;BME280;3265;42.694;23.282;2022-12-07T08:47:32;94530.44;;;5.74;100.00
6464;BME280;3265;42.694;23.282;2022-12-07T08:50:01;94535.22;;;5.77;100.00
6464;BME280;3265;42.694;23.282;2022-12-07T08:52:29;94548.25;;;6.03;100.00
6464;BME280;3265;42.694;23.282;2022-12-07T08:54:56;94547.94;;;6.26;100.00
6464;BME280;3265;42.694;23.282;2022-12-07T08:57:24;94546.00;;;6.41;100.00
6464;BME280;3265;42.694;23.282;2022-12-07T08:59:54;94549.97;;;6.37;100.00
6464;BME280;3265;42.694;23.282;2022-12-07T09:02:20;94541.38;;;6.17;100.00
6464;BME280;3265;42.694;23.282;2022-12-07T09:04:47;94527.47;;;6.11;100.00
6464;BME280;3265;42.694;23.282;2022-12-07T09:07:15;94525.28;;;6.21;100.00
6464;BME280;3265;42.694;23.282;2022-12-07T09:09:42;94514.19;;;6.27;100.00
6464;BME280;3265;42.694;23.282;2022-12-07T09:12:09;94499.13;;;6.31;100.00
6464;BME280;3265;42.694;23.282;2022-12-07T09:14:36;94516.22;;;6.58;100.00
6464;BME280;3265;42.694;23.282;2022-12-07T09:17:09;94513.69;;;6.78;100.00
6464;BME280;3265;42.694;23.282;2022-12-07T09:19:37;94517.84;;;6.99;100.00
6464;BME280;3265;42.694;23.282;2022-12-07T09:22:04;94515.69;;;7.09;100.00
6464;BME280;3265;42.694;23.282;2022-12-07T09:24:33;94513.50;;;7.12;100.00
6464;BME280;3265;42.694;23.282;2022-12-07T09:27:00;94497.78;;;7.27;100.00
6464;BME280;3265;42.694;23.282;2022-12-07T09:29:26;94510.03;;;7.44;100.00
6464;BME280;3265;42.694;23.282;2022-12-07T09:31:53;94510.22;;;7.56;100.00
6464;BME280;3265;42.694;23.282;2022-12-07T09:34:20;94499.69;;;7.64;100.00
6464;BME280;3265;42.694;23.282;2022-12-07T09:36:48;94512.16;;;7.80;100.00
6464;BME280;3265;42.694;23.282;2022-12-07T09:39:15;94502.53;;;7.94;100.00
6464;BME280;3265;42.694;23.282;2022-12-07T09:41:44;94479.72;;;7.84;100.00
6464;BME280;3265;42.694;23.282;2022-12-07T09:44:14;94492.97;;;8.01;100.00
6464;BME280;3265;42.694;23.282;2022-12-07T09:46:44;94492.53;;;8.11;100.00
6464;BME280;3265;42.694;23.282;2022-12-07T09:49:14;94490.13;;;8.16;100.00
6464;BME280;3265;42.694;23.282;2022-12-07T09:51:43;94496.09;;;8.16;100.00
6464;BME280;3265;42.694;23.282;2022-12-07T09:54:12;94494.66;;;8.20;100.00
6464;BME280;3265;42.694;23.282;2022-12-07T09:56:40;94491.47;;;8.25;100.00
6464;BME280;3265;42.694;23.282;2022-12-07T09:59:15;94473.75;;;8.28;100.00
6464;BME280;3265;42.694;23.282;2022-12-07T10:01:44;94479.06;;;8.40;100.00
6464;BME280;3265;42.694;23.282;2022-12-07T10:04:14;94450.38;;;8.41;100.00
6464;BME280;3265;42.694;23.282;2022-12-07T10:06:43;94453.09;;;8.53;100.00
6464;BME280;3265;42.694;23.282;2022-12-07T10:09:11;94480.06;;;8.95;100.00
6464;BME280;3265;42.694;23.282;2022-12-07T10:12:02;94475.81;;;8.76;100.00
6464;BME280;3265;42.694;23.282;2022-12-07T10:14:32;94463.22;;;8.54;100.00
6464;BME280;3265;42.694;23.282;2022-12-07T10:17:00;94463.31;;;8.97;100.00
6464;BME280;3265;42.694;23.282;2022-12-07T10:19:28;94444.44;;;9.69;100.00
6464;BME280;3265;42.694;23.282;2022-12-07T10:22:04;94461.75;;;10.53;99.44
6464;BME280;3265;42.694;23.282;2022-12-07T10:24:31;94453.53;;;10.79;95.06
6464;BME280;3265;42.694;23.282;2022-12-07T10:26:59;94451.63;;;10.87;94.42
6464;BME280;3265;42.694;23.282;2022-12-07T10:29:29;94451.91;;;10.55;93.74
6464;BME280;3265;42.694;23.282;2022-12-07T10:32:00;94446.44;;;10.45;95.14
6464;BME280;3265;42.694;23.282;2022-12-07T10:34:28;94448.38;;;10.38;95.76
6464;BME280;3265;42.694;23.282;2022-12-07T10:37:14;94421.56;;;10.26;95.75
6464;BME280;3265;42.694;23.282;2022-12-07T10:39:42;94441.34;;;10.27;95.58
6464;BME280;3265;42.694;23.282;2022-12-07T10:42:17;94440.84;;;10.60;95.75
6464;BME280;3265;42.694;23.282;2022-12-07T10:44:44;94428.34;;;10.92;94.35
6464;BME280;3265;42.694;23.282;2022-12-07T10:47:27;94435.25;;;11.21;92.77
6464;BME280;3265;42.694;23.282;2022-12-07T10:50:14;94430.84;;;11.21;91.83
6464;BME280;3265;42.694;23.282;2022-12-07T10:53:02;94427.44;;;11.09;91.90
6464;BME280;3265;42.694;23.282;2022-12-07T10:55:45;94412.28;;;10.95;91.72
6464;BME280;3265;42.694;23.282;2022-12-07T10:58:31;94422.34;;;11.03;92.47
6464;BME280;3265;42.694;23.282;2022-12-07T11:01:07;94412.16;;;11.36;92.04
6464;BME280;3265;42.694;23.282;2022-12-07T11:03:54;94402.06;;;12.47;88.52
6464;BME280;3265;42.694;23.282;2022-12-07T11:06:32;94414.56;;;14.37;81.08
6464;BME280;3265;42.694;23.282;2022-12-07T11:09:16;94416.06;;;15.65;75.26
6464;BME280;3265;42.694;23.282;2022-12-07T11:11:57;94430.03;;;16.58;70.38
6464;BME280;3265;42.694;23.282;2022-12-07T11:14:32;94423.75;;;17.40;67.56
6464;BME280;3265;42.694;23.282;2022-12-07T11:17:05;94418.56;;;18.04;66.87
6464;BME280;3265;42.694;23.282;2022-12-07T11:20:00;94414.75;;;18.79;62.58
6464;BME280;3265;42.694;23.282;2022-12-07T11:22:36;94410.41;;;18.98;62.11
6464;BME280;3265;42.694;23.282;2022-12-07T11:25:17;94416.97;;;18.62;61.99
6464;BME280;3265;42.694;23.282;2022-12-07T11:27:50;94413.75;;;17.62;64.62
6464;BME280;3265;42.694;23.282;2022-12-07T11:30:23;94393.31;;;17.09;67.04
6464;BME280;3265;42.694;23.282;2022-12-07T11:33:11;94390.97;;;18.06;63.77
6464;BME280;3265;42.694;23.282;2022-12-07T11:35:57;94384.06;;;18.21;61.74
6464;BME280;3265;42.694;23.282;2022-12-07T11:38:33;94391.22;;;18.59;61.30
6464;BME280;3265;42.694;23.282;2022-12-07T11:41:05;94405.66;;;19.29;60.14
6464;BME280;3265;42.694;23.282;2022-12-07T11:43:56;94402.41;;;20.13;58.59
6464;BME280;3265;42.694;23.282;2022-12-07T11:46:49;94405.91;;;21.02;54.93
6464;BME280;3265;42.694;23.282;2022-12-07T11:49:21;94412.97;;;21.25;52.88
6464;BME280;3265;42.694;23.282;2022-12-07T11:51:58;94404.03;;;20.89;53.34
6464;BME280;3265;42.694;23.282;2022-12-07T11:54:32;94399.13;;;20.21;54.29
6464;BME280;3265;42.694;23.282;2022-12-07T11:57:13;94392.09;;;20.73;54.19
6464;BME280;3265;42.694;23.282;2022-12-07T11:59:46;94383.06;;;21.11;53.34
6464;BME280;3265;42.694;23.282;2022-12-07T12:02:19;94388.34;;;21.71;52.71
6464;BME280;3265;42.694;23.282;2022-12-07T12:04:53;94375.13;;;21.71;51.28
6464;BME280;3265;42.694;23.282;2022-12-07T12:07:25;94379.84;;;20.63;52.09
6464;BME280;3265;42.694;23.282;2022-12-07T12:09:55;94366.06;;;19.87;54.50
6464;BME280;3265;42.694;23.282;2022-12-07T12:12:46;94366.25;;;18.90;56.55
6464;BME280;3265;42.694;23.282;2022-12-07T12:15:33;94364.47;;;18.37;58.54
6464;BME280;3265;42.694;23.282;2022-12-07T12:20:57;94347.53;;;18.58;59.37
6464;BME280;3265;42.694;23.282;2022-12-07T12:23:39;94341.03;;;19.08;57.53
6464;BME280;3265;42.694;23.282;2022-12-07T12:26:15;94358.66;;;19.41;56.97
6464;BME280;3265;42.694;23.282;2022-12-07T12:28:52;94353.44;;;19.36;56.48
6464;BME280;3265;42.694;23.282;2022-12-07T12:31:32;94327.41;;;18.72;57.31
6464;BME280;3265;42.694;23.282;2022-12-07T12:34:37;94335.38;;;18.23;58.89
6464;BME280;3265;42.694;23.282;2022-12-07T12:37:40;94329.44;;;18.02;59.96
6464;BME280;3265;42.694;23.282;2022-12-07T12:40:39;94330.56;;;17.91;60.52
6464;BME280;3265;42.694;23.282;2022-12-07T12:43:40;94311.44;;;18.20;60.56
6464;BME280;3265;42.694;23.282;2022-12-07T12:46:39;94320.00;;;18.74;58.99
6464;BME280;3265;42.694;23.282;2022-12-07T12:49:37;94312.06;;;18.79;57.63
6464;BME280;3265;42.694;23.282;2022-12-07T12:55:19;94332.66;;;19.30;56.83
6464;BME280;3265;42.694;23.282;2022-12-07T12:58:28;94321.31;;;19.58;56.37
6464;BME280;3265;42.694;23.282;2022-12-07T13:04:02;94334.03;;;20.35;54.79
6464;BME280;3265;42.694;23.282;2022-12-07T13:06:35;94313.75;;;18.65;57.05
6464;BME280;3265;42.694;23.282;2022-12-07T13:09:15;94329.63;;;17.52;60.18
6464;BME280;3265;42.694;23.282;2022-12-07T13:11:45;94280.63;;;17.12;60.84
6464;BME280;3265;42.694;23.282;2022-12-07T13:14:54;94332.56;;;18.04;59.60
6464;BME280;3265;42.694;23.282;2022-12-07T13:20:52;94328.28;;;18.91;56.82
6464;BME280;3265;42.694;23.282;2022-12-07T13:23:26;94313.50;;;18.95;56.68
6464;BME280;3265;42.694;23.282;2022-12-07T13:26:04;94324.81;;;19.24;55.85
6464;BME280;3265;42.694;23.282;2022-12-07T13:28:42;94292.69;;;18.99;56.32
6464;BME280;3265;42.694;23.282;2022-12-07T13:31:14;94299.06;;;19.16;56.25
6464;BME280;3265;42.694;23.282;2022-12-07T13:33:44;94325.56;;;19.25;55.64
6464;BME280;3265;42.694;23.282;2022-12-07T13:36:19;94325.22;;;19.08;55.47
6464;BME280;3265;42.694;23.282;2022-12-07T13:38:53;94314.81;;;18.69;56.88
6464;BME280;3265;42.694;23.282;2022-12-07T13:41:21;94317.53;;;18.15;57.80
6464;BME280;3265;42.694;23.282;2022-12-07T13:43:50;94297.91;;;17.38;59.95